Time;durP1;ratioP1;P1;durP2;ratioP2;P2;SDS_P1;SDS_P2;PMS_P1;PMS_P2;Temp;Humidity;BMP_temperature;BMP_pressure;BME280_temperature;BME280_humidity;BME280_pressure;Samples;Min_cycle;Max_cycle;Signal;HPM_P1;HPM_P2
2022/01/21 00:01:05;;;;;;;13.02;3.75;;;2.30;99.90;;;;;;5115931;27;20174;-46
2022/01/21 00:03:30;;;;;;;17.85;2.92;;;2.30;99.90;;;;;;5116268;27;20637;-46
2022/01/21 00:05:56;;;;;;;10.93;2.40;;;2.30;99.90;;;;;;5116298;27;20249;-45
2022/01/21 00:08:21;;;;;;;9.48;2.42;;;2.20;99.90;;;;;;5134300;27;20618;-45
2022/01/21 00:10:48;;;;;;;10.82;2.35;;;2.10;99.90;;;;;;5115564;27;20167;-45
2022/01/21 00:13:22;;;;;;;7.30;2.72;;;2.00;99.90;;;;;;5134415;27;20171;-45
2022/01/21 00:15:48;;;;;;;8.45;2.20;;;2.00;99.90;;;;;;5115774;27;20167;-45
2022/01/21 00:18:14;;;;;;;22.25;3.13;;;2.00;99.90;;;;;;5115655;27;20690;-45
2022/01/21 00:31:36;;;;;;;9.38;2.38;;;1.90;99.90;;;;;;5134141;27;20171;-46
2022/01/21 00:34:01;;;;;;;21.15;3.08;;;1.90;99.90;;;;;;5115330;27;20168;-45
2022/01/21 00:36:27;;;;;;;12.77;2.85;;;1.90;99.90;;;;;;5134196;27;20168;-45
2022/01/21 00:38:57;;;;;;;12.63;3.08;;;1.80;99.90;;;;;;5133850;27;20637;-47
2022/01/21 00:41:26;;;;;;;12.20;2.70;;;1.80;99.90;;;;;;5133615;27;20156;-45
2022/01/21 00:43:52;;;;;;;18.85;3.65;;;1.80;99.90;;;;;;5115208;27;20164;-46
2022/01/21 00:46:19;;;;;;;8.52;3.45;;;1.90;99.90;;;;;;5133587;27;20162;-45
2022/01/21 00:48:45;;;;;;;11.95;2.92;;;1.90;99.90;;;;;;5115128;27;20168;-45
2022/01/21 00:51:11;;;;;;;9.85;3.22;;;1.90;99.90;;;;;;5133425;27;20168;-46
2022/01/21 00:53:36;;;;;;;8.77;3.10;;;1.80;99.90;;;;;;5133389;27;20192;-45
2022/01/21 00:56:02;;;;;;;12.05;2.97;;;1.80;99.90;;;;;;5098053;27;20164;-45
2022/01/21 00:58:28;;;;;;;7.13;2.45;;;1.90;99.90;;;;;;5115141;27;20204;-45
2022/01/21 01:00:53;;;;;;;13.23;2.88;;;1.80;99.90;;;;;;5133275;27;20164;-45
2022/01/21 01:03:19;;;;;;;13.82;2.90;;;1.90;99.90;;;;;;5098004;27;20676;-46
2022/01/21 01:05:46;;;;;;;11.43;3.13;;;2.00;99.90;;;;;;5132856;27;20160;-45
2022/01/21 01:08:12;;;;;;;10.38;2.88;;;2.00;99.90;;;;;;5132593;27;20248;-45
2022/01/21 01:21:21;;;;;;;15.13;3.30;;;2.00;99.90;;;;;;5133126;27;20201;-46
2022/01/21 01:29:00;;;;;;;9.43;2.58;;;2.10;99.90;;;;;;5133601;27;20224;-45
2022/01/21 01:31:25;;;;;;;13.77;3.20;;;1.90;99.90;;;;;;5114756;28;20164;-46
2022/01/21 01:33:52;;;;;;;8.50;2.95;;;1.80;99.90;;;;;;5132895;27;20164;-46
2022/01/21 01:36:18;;;;;;;9.18;2.97;;;2.90;99.90;;;;;;5132995;27;20160;-47
2022/01/21 01:41:13;;;;;;;14.82;3.38;;;1.70;99.90;;;;;;5132913;27;20152;-45
2022/01/21 01:51:51;;;;;;;13.95;3.47;;;1.80;99.90;;;;;;5132767;27;20534;-46
2022/01/21 01:54:18;;;;;;;13.30;2.72;;;1.80;99.90;;;;;;5132725;27;20164;-45
2022/01/21 01:56:51;;;;;;;24.08;3.60;;;1.80;99.90;;;;;;5132735;27;20696;-46
2022/01/21 01:59:16;;;;;;;10.13;2.80;;;1.80;99.90;;;;;;5132659;27;20205;-45
2022/01/21 02:01:42;;;;;;;15.90;3.03;;;1.80;99.90;;;;;;5132734;27;20629;-46
2022/01/21 02:04:08;;;;;;;8.38;2.80;;;1.70;99.90;;;;;;5132737;27;20164;-46
2022/01/21 02:06:33;;;;;;;7.35;2.15;;;1.70;99.90;;;;;;5132611;27;20172;-46
2022/01/21 02:09:00;;;;;;;8.43;2.50;;;1.70;99.90;;;;;;5132930;28;20176;-47
2022/01/21 02:11:26;;;;;;;6.32;3.28;;;1.60;99.90;;;;;;5132630;27;20697;-46
2022/01/21 02:13:57;;;;;;;14.68;2.75;;;1.60;99.90;;;;;;5132510;27;20281;-45
2022/01/21 02:21:38;;;;;;;16.30;4.20;;;1.50;99.90;;;;;;5136487;27;20249;-45
2022/01/21 02:24:16;;;;;;;12.45;3.28;;;1.60;99.90;;;;;;5136575;27;20180;-45
2022/01/21 02:26:43;;;;;;;6.32;3.03;;;1.60;99.90;;;;;;5136611;27;20174;-45
2022/01/21 02:29:10;;;;;;;14.55;3.40;;;1.50;99.90;;;;;;5136616;27;20199;-45
2022/01/21 02:31:37;;;;;;;8.40;2.83;;;1.50;99.90;;;;;;5136214;27;20163;-45
2022/01/21 02:34:05;;;;;;;10.63;2.63;;;1.50;99.90;;;;;;5136194;27;20160;-47
2022/01/21 02:36:30;;;;;;;14.35;3.72;;;1.50;99.90;;;;;;5136061;27;20639;-46
2022/01/21 02:38:56;;;;;;;9.65;3.53;;;1.50;99.90;;;;;;5136296;27;20213;-45
2022/01/21 02:41:22;;;;;;;12.48;3.20;;;1.60;99.90;;;;;;5136032;27;20209;-47
2022/01/21 02:43:48;;;;;;;12.98;3.13;;;1.60;99.90;;;;;;5135960;27;20164;-46
2022/01/21 02:46:15;;;;;;;8.68;2.45;;;1.60;99.90;;;;;;5136208;27;20216;-45
2022/01/21 02:48:41;;;;;;;12.10;2.83;;;1.60;99.90;;;;;;5135861;27;20651;-46
2022/01/21 02:51:09;;;;;;;5.32;2.47;;;1.70;99.90;;;;;;5135958;27;20160;-46
2022/01/21 02:54:04;;;;;;;12.15;2.00;;;1.70;99.90;;;;;;5135845;27;20164;-46
2022/01/21 02:56:23;;;;;;;13.07;2.90;;;1.70;99.90;;;;;;5135072;27;20646;-46
2022/01/21 02:58:49;;;;;;;17.90;2.85;;;1.80;99.90;;;;;;5135642;27;20195;-47
2022/01/21 03:01:16;;;;;;;8.38;2.30;;;1.80;99.90;;;;;;5135743;27;20156;-45
2022/01/21 03:03:43;;;;;;;7.00;2.78;;;1.80;99.90;;;;;;5135732;27;20176;-46
2022/01/21 03:06:09;;;;;;;10.85;2.60;;;1.80;99.90;;;;;;5135644;27;20233;-46
2022/01/21 03:08:34;;;;;;;11.57;2.67;;;1.90;99.90;;;;;;5135524;27;20195;-50
2022/01/21 03:11:00;;;;;;;14.10;2.50;;;1.90;99.90;;;;;;5135281;27;20228;-47
2022/01/21 03:13:26;;;;;;;8.75;2.53;;;1.90;99.90;;;;;;5135741;27;20178;-48
2022/01/21 03:15:52;;;;;;;11.93;2.30;;;2.00;99.90;;;;;;5135451;27;20526;-45
2022/01/21 03:18:18;;;;;;;11.80;3.10;;;2.10;99.90;;;;;;5135218;27;20621;-46
2022/01/21 03:20:45;;;;;;;9.60;3.03;;;2.00;99.90;;;;;;5135358;27;20224;-45
2022/01/21 03:23:15;;;;;;;9.45;2.38;;;2.00;99.90;;;;;;5135319;27;20168;-46
2022/01/21 03:25:46;;;;;;;6.13;1.92;;;2.10;99.90;;;;;;5135351;27;20278;-46
2022/01/21 03:28:12;;;;;;;10.63;2.72;;;2.00;99.90;;;;;;5135519;27;20172;-46
2022/01/21 03:30:38;;;;;;;11.93;2.83;;;2.00;99.90;;;;;;5134493;27;20171;-46
2022/01/21 03:33:03;;;;;;;15.85;3.22;;;2.00;99.90;;;;;;5135077;27;20208;-46
2022/01/21 03:35:29;;;;;;;11.60;2.30;;;2.00;99.90;;;;;;5135335;27;20163;-47
2022/01/21 03:37:55;;;;;;;6.43;2.17;;;1.90;99.90;;;;;;5135194;27;20202;-45
2022/01/21 03:40:23;;;;;;;11.88;3.45;;;1.90;99.90;;;;;;5134902;27;20172;-45
2022/01/21 03:42:48;;;;;;;12.68;2.53;;;1.90;99.90;;;;;;5134935;27;20156;-45
2022/01/21 03:45:14;;;;;;;13.07;2.22;;;1.90;99.90;;;;;;5135084;27;20745;-45
2022/01/21 03:47:41;;;;;;;13.23;3.30;;;1.80;99.90;;;;;;5134802;27;20192;-47
2022/01/21 03:50:21;;;;;;;9.00;2.60;;;1.80;99.90;;;;;;5134736;27;20168;-45
2022/01/21 03:52:47;;;;;;;12.25;2.65;;;1.80;99.90;;;;;;5134959;27;20172;-45
2022/01/21 03:55:13;;;;;;;10.43;2.28;;;1.80;99.90;;;;;;5134922;27;20497;-46
2022/01/21 03:57:38;;;;;;;10.95;2.92;;;1.50;99.90;;;;;;5134548;27;20160;-45
2022/01/21 04:00:09;;;;;;;10.65;2.78;;;1.80;99.90;;;;;;5134649;27;20180;-46
2022/01/21 04:02:36;;;;;;;10.88;2.70;;;1.80;99.90;;;;;;5134531;27;20646;-46
2022/01/21 04:05:02;;;;;;;11.73;3.30;;;1.80;99.90;;;;;;5134491;27;20176;-46
2022/01/21 04:07:27;;;;;;;15.88;2.88;;;1.80;99.90;;;;;;5134652;27;20164;-45
2022/01/21 04:09:53;;;;;;;7.53;2.03;;;1.80;99.90;;;;;;5134667;27;20251;-46
2022/01/21 04:12:18;;;;;;;15.48;3.25;;;1.80;99.90;;;;;;5134092;27;20691;-45
2022/01/21 04:14:44;;;;;;;5.40;2.17;;;1.90;99.90;;;;;;5134224;27;20219;-45
2022/01/21 04:17:09;;;;;;;14.93;2.88;;;1.90;99.90;;;;;;5134175;27;20160;-46
2022/01/21 04:19:35;;;;;;;9.35;2.80;;;1.90;99.90;;;;;;5134029;27;20214;-45
2022/01/21 04:22:00;;;;;;;12.88;2.58;;;1.90;99.90;;;;;;5134113;27;20689;-47
2022/01/21 04:24:26;;;;;;;14.43;3.13;;;2.00;99.90;;;;;;5134530;27;20172;-46
2022/01/21 04:26:52;;;;;;;17.60;3.65;;;2.00;99.90;;;;;;5133947;27;20179;-45
2022/01/21 04:29:17;;;;;;;15.57;3.50;;;2.00;99.90;;;;;;5134094;27;20164;-50
2022/01/21 04:31:43;;;;;;;10.70;3.13;;;2.00;99.90;;;;;;5133927;27;20175;-54
2022/01/21 04:34:09;;;;;;;12.73;3.75;;;2.00;99.90;;;;;;5133811;27;20175;-46
2022/01/21 04:36:35;;;;;;;13.43;3.03;;;2.00;99.90;;;;;;5133815;27;20167;-45
2022/01/21 04:39:03;;;;;;;17.48;3.05;;;2.00;99.90;;;;;;5133728;27;20204;-45
2022/01/21 04:49:41;;;;;;;19.75;4.10;;;2.10;99.90;;;;;;5133674;27;20202;-46
2022/01/21 04:52:06;;;;;;;8.88;2.83;;;2.00;99.90;;;;;;5133945;27;20650;-53
2022/01/21 04:54:34;;;;;;;8.93;3.17;;;2.10;99.90;;;;;;5133486;27;20674;-52
2022/01/21 04:57:01;;;;;;;12.32;2.83;;;2.00;99.90;;;;;;5133791;27;20171;-50
2022/01/21 04:59:27;;;;;;;10.35;2.83;;;2.00;99.90;;;;;;5133629;27;20260;-53
2022/01/21 05:01:53;;;;;;;17.67;3.35;;;2.00;99.90;;;;;;5133592;27;20525;-53
2022/01/21 05:04:20;;;;;;;13.30;3.60;;;2.00;99.90;;;;;;5133391;27;20160;-53
2022/01/21 05:06:49;;;;;;;12.95;2.55;;;2.00;99.90;;;;;;5133340;27;20620;-48
2022/01/21 05:09:18;;;;;;;8.10;2.30;;;2.00;99.90;;;;;;5133291;27;20176;-50
2022/01/21 05:11:46;;;;;;;12.65;3.15;;;2.00;99.90;;;;;;5133007;27;20755;-53
2022/01/21 05:14:17;;;;;;;9.35;3.35;;;2.00;99.90;;;;;;5133165;27;20221;-49
2022/01/21 05:16:51;;;;;;;9.30;2.72;;;2.10;99.90;;;;;;5133095;27;20691;-48
2022/01/21 05:19:19;;;;;;;12.15;2.83;;;2.00;99.90;;;;;;5133075;27;20260;-45
2022/01/21 05:21:49;;;;;;;11.30;2.83;;;2.10;99.90;;;;;;5133064;27;20164;-47
2022/01/21 05:24:16;;;;;;;8.23;2.28;;;2.10;99.90;;;;;;5133023;27;20179;-54
2022/01/21 05:26:52;;;;;;;14.50;2.95;;;2.10;99.90;;;;;;5133357;27;20168;-54
2022/01/21 05:29:19;;;;;;;10.50;2.92;;;2.00;99.90;;;;;;5133318;27;20171;-49
2022/01/21 05:31:44;;;;;;;13.48;3.03;;;2.00;99.90;;;;;;5133032;27;20171;-53
2022/01/21 05:34:10;;;;;;;5.53;2.63;;;2.00;99.90;;;;;;5132917;27;20156;-53
2022/01/21 05:36:40;;;;;;;20.80;3.33;;;2.10;99.90;;;;;;5133018;27;20650;-52
2022/01/21 05:39:06;;;;;;;11.80;3.25;;;2.00;99.90;;;;;;5133028;27;20230;-54
2022/01/21 05:41:31;;;;;;;10.10;3.22;;;2.10;99.90;;;;;;5133187;27;20639;-54
2022/01/21 05:44:04;;;;;;;13.77;3.53;;;2.00;99.90;;;;;;5133195;27;20250;-52
2022/01/21 05:46:54;;;;;;;10.90;2.70;;;2.00;99.90;;;;;;5133330;27;20195;-54
2022/01/21 05:49:15;;;;;;;17.42;3.40;;;2.10;99.90;;;;;;5132610;27;20204;-51
2022/01/21 05:51:42;;;;;;;7.05;2.70;;;2.00;99.90;;;;;;5132737;27;20168;-50
2022/01/21 05:54:09;;;;;;;13.70;3.33;;;2.00;99.90;;;;;;5136527;27;20159;-49
2022/01/21 05:56:37;;;;;;;8.70;3.17;;;2.00;99.90;;;;;;5137201;27;20167;-46
2022/01/21 05:59:03;;;;;;;16.02;3.55;;;2.10;99.90;;;;;;5137059;27;20660;-51
2022/01/21 06:01:29;;;;;;;10.57;2.78;;;2.00;99.90;;;;;;5137226;27;20183;-50
2022/01/21 06:03:54;;;;;;;15.18;3.58;;;2.00;99.90;;;;;;5136753;27;20628;-49
2022/01/21 06:06:20;;;;;;;8.60;2.67;;;2.10;99.90;;;;;;5137073;27;20171;-51
2022/01/21 06:08:46;;;;;;;14.65;4.63;;;2.10;99.90;;;;;;5136493;27;20188;-48
2022/01/21 06:11:12;;;;;;;11.18;3.22;;;2.00;99.90;;;;;;5136512;27;20215;-50
2022/01/21 06:13:38;;;;;;;14.88;3.85;;;2.00;99.90;;;;;;5136864;27;20547;-53
2022/01/21 06:16:04;;;;;;;14.55;3.65;;;2.00;99.90;;;;;;5136624;27;20279;-49
2022/01/21 06:18:30;;;;;;;8.77;3.25;;;2.00;99.90;;;;;;5136751;27;20204;-52
2022/01/21 06:20:55;;;;;;;13.85;3.80;;;2.40;99.90;;;;;;5136480;27;20168;-49
2022/01/21 06:23:21;;;;;;;20.38;4.53;;;1.90;99.90;;;;;;5136291;27;20172;-54
2022/01/21 06:25:46;;;;;;;8.20;3.85;;;2.00;99.90;;;;;;5136188;27;20216;-54
2022/01/21 06:28:12;;;;;;;8.52;3.13;;;1.90;99.90;;;;;;5136433;27;20164;-51
2022/01/21 06:30:38;;;;;;;18.85;4.57;;;2.00;99.90;;;;;;5136531;27;20179;-52
2022/01/21 06:33:04;;;;;;;8.38;3.42;;;2.00;99.90;;;;;;5136384;27;20300;-48
2022/01/21 06:35:29;;;;;;;17.58;4.80;;;1.90;99.90;;;;;;5136320;27;20228;-50
2022/01/21 06:37:55;;;;;;;11.52;5.00;;;1.90;99.90;;;;;;5136431;27;20188;-53
2022/01/21 06:40:21;;;;;;;8.70;3.83;;;1.90;99.90;;;;;;5136070;27;20184;-54
2022/01/21 06:42:49;;;;;;;14.15;4.20;;;1.90;99.90;;;;;;5136277;27;20509;-51
2022/01/21 06:45:15;;;;;;;11.18;4.20;;;1.80;99.90;;;;;;5135817;27;20164;-50
2022/01/21 06:47:41;;;;;;;18.48;4.60;;;1.80;99.90;;;;;;5135714;27;20557;-56
2022/01/21 06:50:07;;;;;;;7.97;4.18;;;1.80;99.90;;;;;;5135773;27;20221;-54
2022/01/21 06:52:32;;;;;;;15.95;4.15;;;1.70;99.90;;;;;;5135700;27;20168;-51
2022/01/21 06:54:59;;;;;;;17.20;5.15;;;1.80;99.90;;;;;;5135900;27;20168;-51
2022/01/21 06:57:25;;;;;;;12.35;4.55;;;1.80;99.90;;;;;;5135548;27;20164;-52
2022/01/21 06:59:51;;;;;;;16.27;4.68;;;1.80;99.90;;;;;;5135608;27;20282;-56
2022/01/21 07:02:18;;;;;;;10.00;3.00;;;1.80;99.90;;;;;;5135960;27;20618;-53
2022/01/21 07:04:46;;;;;;;6.78;3.88;;;1.70;99.90;;;;;;5134499;27;20183;-46
2022/01/21 07:07:12;;;;;;;16.75;4.57;;;1.70;99.90;;;;;;5117194;27;20583;-50
2022/01/21 07:09:37;;;;;;;12.57;3.78;;;1.70;99.90;;;;;;5135579;27;20175;-50
2022/01/21 07:12:03;;;;;;;10.82;4.32;;;1.70;99.90;;;;;;5135343;27;20252;-50
2022/01/21 07:14:29;;;;;;;19.40;4.50;;;1.80;99.90;;;;;;5135742;27;20168;-52
2022/01/21 07:16:54;;;;;;;17.38;4.45;;;1.80;99.90;;;;;;5135669;27;20579;-53
2022/01/21 07:19:20;;;;;;;13.00;4.47;;;1.70;99.90;;;;;;5135221;27;20570;-47
2022/01/21 07:21:46;;;;;;;16.52;5.32;;;1.80;99.90;;;;;;5135424;27;20168;-54
2022/01/21 07:24:11;;;;;;;16.88;4.75;;;1.80;99.90;;;;;;5135181;27;20255;-50
2022/01/21 07:26:37;;;;;;;16.65;5.55;;;1.80;99.90;;;;;;5135187;27;20587;-48
2022/01/21 07:29:03;;;;;;;12.50;5.05;;;1.80;99.90;;;;;;5135434;27;20168;-51
2022/01/21 07:31:29;;;;;;;16.63;5.25;;;1.80;99.90;;;;;;5135369;27;20172;-52
2022/01/21 07:33:54;;;;;;;12.35;4.70;;;1.90;99.90;;;;;;5135715;27;20181;-52
2022/01/21 07:36:20;;;;;;;15.70;4.60;;;1.90;99.90;;;;;;5135014;27;20160;-51
2022/01/21 07:38:46;;;;;;;15.80;5.10;;;1.90;99.90;;;;;;5134842;27;20202;-48
2022/01/21 07:41:11;;;;;;;14.93;6.93;;;1.90;99.90;;;;;;5134966;27;20277;-51
2022/01/21 07:43:37;;;;;;;18.08;5.57;;;1.80;99.90;;;;;;5134819;27;20560;-49
2022/01/21 07:46:02;;;;;;;16.23;4.60;;;1.90;99.90;;;;;;5134785;27;20167;-50
2022/01/21 07:48:28;;;;;;;13.30;5.18;;;1.80;99.90;;;;;;5135094;27;20619;-52
2022/01/21 07:50:54;;;;;;;16.02;4.63;;;1.90;99.90;;;;;;5134618;27;20171;-49
2022/01/21 07:53:19;;;;;;;14.75;5.03;;;1.90;99.90;;;;;;5134669;27;20167;-47
2022/01/21 07:55:49;;;;;;;15.52;4.93;;;2.00;99.90;;;;;;5134603;27;20172;-48
2022/01/21 07:58:15;;;;;;;17.38;5.25;;;1.90;99.90;;;;;;5134374;27;20208;-51
2022/01/21 08:00:41;;;;;;;11.00;4.72;;;1.90;99.90;;;;;;5134508;27;20252;-49
2022/01/21 08:03:06;;;;;;;11.82;5.38;;;1.90;99.90;;;;;;5134119;27;20188;-46
2022/01/21 08:05:34;;;;;;;15.32;6.03;;;1.90;99.90;;;;;;5134610;27;20170;-46
2022/01/21 08:08:00;;;;;;;10.70;4.35;;;2.00;99.90;;;;;;5134650;27;20197;-45
2022/01/21 08:10:26;;;;;;;9.23;5.60;;;1.90;99.90;;;;;;5134457;27;20221;-45
2022/01/21 08:12:52;;;;;;;16.30;5.75;;;1.90;99.90;;;;;;5133771;27;20205;-45
2022/01/21 08:15:17;;;;;;;11.90;5.38;;;2.00;99.90;;;;;;5134306;27;20171;-45
2022/01/21 08:17:43;;;;;;;18.30;4.90;;;2.00;99.90;;;;;;5133711;27;20209;-45
2022/01/21 08:20:10;;;;;;;8.27;4.13;;;2.00;99.90;;;;;;5134280;27;20195;-45
2022/01/21 08:22:36;;;;;;;8.18;4.82;;;2.00;99.90;;;;;;5133989;27;20247;-46
2022/01/21 08:25:03;;;;;;;10.65;5.40;;;2.10;99.90;;;;;;5133903;27;20635;-45
2022/01/21 08:27:29;;;;;;;16.65;5.35;;;2.00;99.90;;;;;;5134244;27;20234;-45
2022/01/21 08:29:54;;;;;;;12.90;4.85;;;2.10;99.90;;;;;;5134326;27;20603;-45
2022/01/21 08:32:20;;;;;;;10.35;4.88;;;2.10;99.90;;;;;;5133479;27;20168;-45
2022/01/21 08:34:45;;;;;;;13.45;5.05;;;2.20;99.90;;;;;;5134053;27;20255;-45
2022/01/21 08:37:12;;;;;;;16.95;5.25;;;2.20;99.90;;;;;;5133728;27;20200;-45
2022/01/21 08:39:37;;;;;;;13.90;4.90;;;2.30;99.90;;;;;;5133585;27;20199;-46
2022/01/21 08:42:06;;;;;;;9.13;4.20;;;2.20;99.90;;;;;;5133658;27;20502;-45
2022/01/21 08:44:32;;;;;;;11.13;4.80;;;2.20;99.90;;;;;;5133466;27;20212;-46
2022/01/21 08:46:58;;;;;;;12.75;5.10;;;2.20;99.90;;;;;;5133778;27;20239;-45
2022/01/21 08:49:23;;;;;;;6.80;4.32;;;2.20;99.90;;;;;;5133269;27;20244;-47
2022/01/21 08:51:52;;;;;;;15.77;4.85;;;2.30;99.90;;;;;;5133505;27;20179;-46
2022/01/21 08:54:18;;;;;;;18.40;5.38;;;2.30;99.90;;;;;;5133188;27;20159;-46
2022/01/21 08:56:46;;;;;;;10.23;4.82;;;2.30;99.90;;;;;;5133479;27;20559;-52
2022/01/21 08:59:12;;;;;;;13.30;4.40;;;2.40;99.90;;;;;;5133379;27;20694;-45
2022/01/21 09:01:37;;;;;;;15.90;5.45;;;2.50;99.90;;;;;;5133442;27;20160;-50
2022/01/21 09:04:03;;;;;;;18.88;5.85;;;2.50;99.90;;;;;;5133357;27;20179;-49
2022/01/21 09:06:29;;;;;;;13.27;5.32;;;2.50;99.90;;;;;;5133742;27;20213;-45
2022/01/21 09:08:56;;;;;;;12.70;5.25;;;2.70;99.90;;;;;;5133787;27;20174;-47
2022/01/21 09:11:21;;;;;;;11.95;5.95;;;2.70;99.90;;;;;;5133266;27;20219;-49
2022/01/21 09:13:47;;;;;;;9.82;5.13;;;2.70;99.90;;;;;;5133182;27;20179;-46
2022/01/21 09:16:13;;;;;;;9.70;5.72;;;2.80;99.90;;;;;;5114683;27;20168;-50
2022/01/21 09:18:46;;;;;;;11.48;5.20;;;3.00;99.90;;;;;;5133110;27;20199;-50
2022/01/21 09:21:17;;;;;;;13.23;4.80;;;3.10;99.90;;;;;;5133124;27;20172;-49
2022/01/21 09:23:47;;;;;;;10.70;4.88;;;3.00;99.90;;;;;;5132836;27;20537;-53
2022/01/21 09:26:13;;;;;;;20.42;5.57;;;3.00;99.90;;;;;;5133123;27;20171;-52
2022/01/21 09:28:39;;;;;;;11.50;5.35;;;3.00;99.90;;;;;;5132371;27;20168;-45
2022/01/21 09:31:04;;;;;;;11.95;4.80;;;2.80;99.90;;;;;;5132599;27;20195;-49
2022/01/21 09:33:30;;;;;;;13.68;4.80;;;2.80;99.90;;;;;;5133113;28;20160;-52
2022/01/21 09:35:55;;;;;;;13.85;5.05;;;2.80;99.90;;;;;;5132743;28;20167;-45
2022/01/21 09:38:24;;;;;;;15.27;4.60;;;2.80;99.90;;;;;;5132744;27;20569;-46
2022/01/21 09:40:51;;;;;;;12.00;4.93;;;2.90;99.90;;;;;;5132776;28;20164;-50
2022/01/21 09:43:18;;;;;;;12.57;5.18;;;2.90;99.90;;;;;;5132794;27;20176;-52
2022/01/21 09:45:53;;;;;;;6.47;4.93;;;3.00;99.90;;;;;;5132562;27;20160;-51
2022/01/21 09:48:23;;;;;;;12.02;5.40;;;3.20;99.90;;;;;;5132948;27;20282;-53
2022/01/21 09:50:51;;;;;;;13.35;5.00;;;3.20;99.90;;;;;;5132747;27;20209;-50
2022/01/21 09:53:23;;;;;;;11.80;4.57;;;3.30;99.90;;;;;;5132758;28;20156;-50
2022/01/21 09:55:49;;;;;;;13.38;5.15;;;3.40;99.90;;;;;;5132412;27;20171;-47
2022/01/21 09:58:14;;;;;;;8.00;4.65;;;3.30;99.90;;;;;;5132635;27;20194;-45
2022/01/21 10:00:40;;;;;;;12.40;4.60;;;3.40;99.90;;;;;;5132223;27;20236;-45
2022/01/21 10:03:06;;;;;;;9.43;5.00;;;3.30;99.90;;;;;;5132877;27;20171;-45
2022/01/21 10:05:32;;;;;;;14.07;5.20;;;3.20;99.90;;;;;;5132441;28;20702;-48
2022/01/21 10:07:59;;;;;;;13.50;4.75;;;3.30;99.90;;;;;;5132823;27;20239;-50
2022/01/21 10:10:25;;;;;;;11.98;4.68;;;3.40;99.90;;;;;;5132315;27;20196;-53
2022/01/21 10:13:01;;;;;;;14.45;5.25;;;3.40;99.90;;;;;;5132292;27;20219;-48
2022/01/21 10:15:26;;;;;;;14.20;4.75;;;3.50;99.90;;;;;;5132750;27;20642;-51
2022/01/21 10:18:14;;;;;;;12.05;4.78;;;3.40;99.90;;;;;;5132448;27;20156;-45
2022/01/21 10:21:00;;;;;;;11.85;4.30;;;3.30;99.90;;;;;;5132466;28;20175;-45
2022/01/21 10:23:29;;;;;;;10.18;4.65;;;3.50;99.90;;;;;;5113656;28;20584;-45
2022/01/21 10:25:57;;;;;;;10.20;4.65;;;3.90;99.90;;;;;;5130855;27;20399;-53
2022/01/21 10:28:24;;;;;;;12.98;4.97;;;3.70;99.90;;;;;;5130825;27;20168;-49
2022/01/21 10:31:05;;;;;;;9.80;4.20;;;3.70;99.90;;;;;;5130938;27;20176;-46
2022/01/21 10:33:31;;;;;;;10.52;4.38;;;3.80;99.90;;;;;;5130884;27;20195;-45
2022/01/21 10:36:23;;;;;;;10.35;3.92;;;3.80;99.90;;;;;;5130986;28;20206;-47
2022/01/21 10:38:51;;;;;;;8.88;4.13;;;4.00;99.90;;;;;;5132646;27;20235;-50
2022/01/21 10:41:19;;;;;;;9.85;4.45;;;4.00;99.90;;;;;;5135151;27;20160;-49
2022/01/21 10:44:12;;;;;;;14.32;4.47;;;4.10;99.90;;;;;;5135384;27;20665;-50
2022/01/21 10:46:40;;;;;;;7.82;4.00;;;4.10;99.90;;;;;;5135666;27;20298;-45
2022/01/21 10:49:12;;;;;;;8.77;4.43;;;4.10;99.90;;;;;;5135912;27;20622;-50
2022/01/21 10:51:40;;;;;;;12.30;3.90;;;4.10;99.90;;;;;;5136222;27;20163;-48
2022/01/21 10:54:26;;;;;;;13.00;4.97;;;4.10;99.90;;;;;;5136092;27;20191;-53
2022/01/21 10:57:18;;;;;;;10.10;4.38;;;4.20;99.90;;;;;;5136080;27;20163;-48
2022/01/21 10:59:54;;;;;;;12.13;4.32;;;4.30;99.90;;;;;;5135648;27;20207;-48
2022/01/21 11:02:46;;;;;;;12.07;4.30;;;4.30;99.90;;;;;;5135711;27;20639;-45
2022/01/21 11:05:31;;;;;;;12.80;3.60;;;4.30;99.90;;;;;;5135679;27;20228;-51
2022/01/21 11:08:05;;;;;;;12.85;4.00;;;4.50;99.90;;;;;;5136158;27;20172;-50
2022/01/21 11:10:40;;;;;;;11.30;4.05;;;4.50;99.90;;;;;;5135486;27;20176;-49
2022/01/21 11:13:20;;;;;;;9.73;3.67;;;4.60;99.90;;;;;;5135410;27;20699;-52
2022/01/21 11:15:57;;;;;;;10.10;3.67;;;4.60;99.90;;;;;;5135658;27;20172;-54
2022/01/21 11:18:24;;;;;;;12.70;4.55;;;4.60;99.90;;;;;;5135253;27;20211;-45
2022/01/21 11:20:56;;;;;;;6.90;3.85;;;4.60;99.90;;;;;;5135575;27;20587;-49
2022/01/21 11:23:22;;;;;;;11.18;3.88;;;4.60;99.90;;;;;;5135504;27;20176;-49
2022/01/21 11:25:57;;;;;;;11.68;4.00;;;4.60;99.90;;;;;;5135472;27;20179;-54
2022/01/21 11:28:36;;;;;;;6.55;3.15;;;4.70;99.90;;;;;;5135162;27;20208;-48
2022/01/21 11:31:02;;;;;;;11.25;3.38;;;4.70;99.90;;;;;;5135007;27;20676;-47
2022/01/21 11:33:28;;;;;;;13.30;3.40;;;4.80;99.90;;;;;;5133910;27;20228;-46
2022/01/21 11:35:53;;;;;;;12.05;3.88;;;4.80;99.90;;;;;;5133278;27;20168;-48
2022/01/21 11:38:22;;;;;;;8.98;3.50;;;4.70;99.90;;;;;;5134721;27;20191;-46
2022/01/21 11:40:50;;;;;;;8.43;2.90;;;4.70;99.90;;;;;;5133852;27;20183;-47
2022/01/21 11:43:16;;;;;;;20.08;4.20;;;4.70;99.90;;;;;;5114939;27;20603;-46
2022/01/21 11:48:53;;;;;;;9.65;3.65;;;4.90;99.90;;;;;;5116816;27;20164;-47
2022/01/21 11:51:18;;;;;;;8.23;4.20;;;4.80;99.90;;;;;;5132868;27;20196;-45
2022/01/21 11:53:49;;;;;;;12.27;3.30;;;4.80;99.90;;;;;;5133269;27;20210;-46
2022/01/21 11:56:36;;;;;;;15.52;3.85;;;4.80;99.90;;;;;;5133314;27;20217;-47
2022/01/21 12:00:12;;;;;;;10.18;3.83;;;4.90;99.90;;;;;;5133383;27;20195;-48
2022/01/21 12:02:14;;;;;;;9.18;3.40;;;4.80;99.90;;;;;;5126030;27;20191;-45
2022/01/21 12:04:45;;;;;;;10.82;3.42;;;4.90;99.90;;;;;;5134617;27;20164;-45
2022/01/21 12:07:33;;;;;;;5.18;2.75;;;4.90;99.90;;;;;;5116022;27;20168;-45
2022/01/21 12:10:00;;;;;;;7.75;3.35;;;4.80;99.90;;;;;;5134687;27;20171;-45
2022/01/21 12:12:48;;;;;;;8.85;3.53;;;4.80;99.90;;;;;;5134648;27;20212;-45
2022/01/21 12:15:27;;;;;;;7.38;3.70;;;4.80;99.90;;;;;;5134506;27;20172;-45
2022/01/21 12:19:33;;;;;;;7.60;3.55;;;4.70;99.90;;;;;;5134140;27;20626;-45
2022/01/21 12:21:34;;;;;;;10.57;4.05;;;4.80;99.90;;;;;;5120650;27;20567;-45
2022/01/21 12:24:00;;;;;;;9.02;3.60;;;4.90;99.90;;;;;;5116076;27;20167;-44
2022/01/21 12:26:27;;;;;;;9.50;3.70;;;4.80;99.90;;;;;;5134594;27;20172;-45
2022/01/21 12:28:57;;;;;;;11.80;3.88;;;4.80;99.90;;;;;;5133933;27;20175;-44
2022/01/21 12:31:25;;;;;;;14.02;3.83;;;4.90;99.90;;;;;;5134154;27;20195;-45
2022/01/21 12:34:06;;;;;;;5.68;3.67;;;5.00;99.90;;;;;;5133977;27;20183;-45
2022/01/21 12:36:41;;;;;;;9.85;3.70;;;4.90;99.90;;;;;;5133806;27;20711;-45
2022/01/21 12:39:35;;;;;;;9.75;4.15;;;5.00;99.90;;;;;;5133971;27;20211;-50
2022/01/21 12:42:19;;;;;;;6.85;3.90;;;5.00;99.90;;;;;;5133888;27;20172;-50
2022/01/21 12:44:45;;;;;;;10.68;4.30;;;5.00;99.90;;;;;;5133724;27;20226;-52
2022/01/21 12:47:32;;;;;;;9.30;3.70;;;5.00;99.90;;;;;;5133851;27;20280;-50
2022/01/21 12:50:06;;;;;;;12.32;4.53;;;5.00;99.90;;;;;;5134027;27;20213;-53
2022/01/21 12:52:49;;;;;;;9.15;4.25;;;5.00;99.90;;;;;;5133561;27;20187;-49
2022/01/21 12:58:16;;;;;;;12.18;4.88;;;5.10;99.90;;;;;;5133707;27;20225;-47
2022/01/21 13:00:43;;;;;;;8.60;4.13;;;5.10;99.90;;;;;;5133507;27;20178;-47
2022/01/21 13:03:47;;;;;;;5.38;3.55;;;5.10;99.90;;;;;;5132863;27;20203;-49
2022/01/21 13:06:37;;;;;;;10.32;4.13;;;5.00;99.90;;;;;;5133322;27;20179;-46
2022/01/21 13:09:12;;;;;;;8.43;3.50;;;5.10;99.90;;;;;;5133349;27;20615;-47
2022/01/21 13:11:42;;;;;;;11.85;3.38;;;5.00;99.90;;;;;;5133157;27;20222;-45
2022/01/21 13:14:26;;;;;;;10.02;3.88;;;5.10;99.90;;;;;;5133289;27;20623;-46
2022/01/21 13:17:21;;;;;;;13.50;4.18;;;5.10;99.90;;;;;;5116425;27;20164;-46
2022/01/21 13:19:54;;;;;;;11.27;4.10;;;5.10;99.90;;;;;;5111565;27;20234;-45
2022/01/21 13:22:21;;;;;;;8.35;4.10;;;5.00;99.90;;;;;;5133027;27;20190;-50
2022/01/21 13:24:58;;;;;;;15.32;4.20;;;5.10;99.90;;;;;;5133316;27;20593;-45
2022/01/21 13:27:25;;;;;;;12.93;3.83;;;5.10;99.90;;;;;;5133316;27;20167;-45
2022/01/21 13:29:58;;;;;;;12.23;3.33;;;5.10;99.90;;;;;;5133221;27;20164;-46
2022/01/21 13:32:24;;;;;;;12.50;4.68;;;5.20;99.90;;;;;;5132901;27;20164;-44
2022/01/21 13:34:49;;;;;;;14.88;4.32;;;5.10;99.90;;;;;;5132961;27;20152;-45
2022/01/21 13:37:18;;;;;;;11.70;4.75;;;5.10;99.90;;;;;;5133006;27;20243;-44
2022/01/21 13:39:46;;;;;;;18.35;4.47;;;5.20;99.90;;;;;;5132845;27;20196;-46
2022/01/21 13:42:15;;;;;;;13.35;4.15;;;5.20;99.90;;;;;;5132965;28;20159;-45
2022/01/21 13:44:54;;;;;;;11.23;4.93;;;5.30;99.90;;;;;;5133160;27;20221;-47
2022/01/21 13:47:36;;;;;;;11.55;5.60;;;5.20;99.90;;;;;;5132957;27;20168;-45
2022/01/21 13:50:11;;;;;;;13.55;4.38;;;5.20;99.90;;;;;;5132733;27;20642;-51
2022/01/21 13:52:42;;;;;;;20.08;7.85;;;5.30;99.90;;;;;;5132775;28;20647;-45
2022/01/21 13:55:11;;;;;;;14.32;5.38;;;5.30;99.90;;;;;;5132963;27;20251;-45
2022/01/21 13:57:44;;;;;;;16.73;4.90;;;5.30;99.90;;;;;;5132762;27;20164;-46